Terminal Aerodrome Forecast
Issued by NWS

Home | Current Version | Previous Version | Text Only | Print | Product List | Glossary On
Versions: 1 2 3 4 5 6 7 8 9 10 11 12 13 14 15 16 17 18 19 20 21 22 23 24
000
FTUS43 KAPX 020332 AAB
TAFMBL
TAF AMD
KMBL 020332Z 0204/0224 30017G25KT P6SM -SHSN SCT025 BKN035
     FM020400 28014G22KT P6SM SCT035
     FM021100 31009G16KT P6SM SCT035
     FM022000 31007KT P6SM FEW035
      AMD LTD TO CLD VIS AND WIND=

USA.gov is the U.S. government's official web portal to all federal, state and local government web resources and services.